< Typhoon 195519 1955 Season Typhoon 195521 >
Typhoon 195520 (JOAN)
General InformationTrack Information on Google Maps || Disaster Info.ResourceGoogle EarthGE AnimationAtom FeedGeoJSON
Detalied Best Track (Time Zone = UTC)
Year Month Day Hour Lat. Long. Pressure (hPa) Wind (kt) Class Image Chart
1955 8 29 06 17.0 144.0 1006 0 2 -- Chart
1955 8 29 12 17.9 144.3 1006 0 2 -- Chart
1955 8 29 18 18.6 144.6 1006 0 2 -- Chart
1955 8 30 00 19.1 144.9 1006 0 2 -- Chart
1955 8 30 06 19.8 145.2 1004 0 2 -- Chart
1955 8 30 12 20.4 145.7 1004 0 2 -- Chart
1955 8 30 18 21.0 146.0 1002 0 2 -- Chart
1955 8 31 00 21.6 146.5 1000 0 2 -- Chart
1955 8 31 06 22.1 146.9 1000 0 2 -- Chart
1955 8 31 12 22.8 147.3 998 0 2 -- Chart
1955 8 31 18 23.3 147.7 995 0 2 -- Chart
1955 9 1 00 24.8 147.8 990 0 9 -- Chart
1955 9 1 06 26.0 146.9 990 0 9 -- Chart
1955 9 1 12 27.0 146.5 990 0 9 -- Chart
1955 9 1 18 28.0 146.4 990 0 9 -- Chart
1955 9 2 00 29.0 146.9 988 0 9 -- Chart
1955 9 2 06 30.5 146.4 986 0 9 -- Chart
1955 9 2 12 32.0 146.0 985 0 9 -- Chart
1955 9 2 18 34.0 146.5 980 0 9 -- Chart
1955 9 3 00 36.2 147.8 975 0 9 -- Chart
1955 9 3 06 38.5 149.8 980 0 9 -- Chart
1955 9 3 12 40.5 151.2 980 0 9 -- Chart
1955 9 3 18 43.4 153.6 980 0 9 -- Chart
1955 9 4 00 46.6 157.5 982 0 9 -- Chart
1955 9 4 06 47.5 160.5 984 0 6 -- Chart
1955 9 4 12 48.2 163.9 986 0 6 -- Chart
1955 9 4 18 48.9 166.9 986 0 6 -- Chart
1955 9 5 00 49.8 169.0 982 0 6 -- Chart
1955 9 5 06 50.3 170.4 976 0 6 -- Chart
1955 9 5 12 50.8 171.8 974 0 6 -- Chart
1955 9 5 18 51.3 173.2 970 0 6 -- Chart
1955 9 6 00 52.0 175.0 968 0 6 -- Chart
1955 9 6 06 53.0 176.6 968 0 6 -- Chart
1955 9 6 12 53.8 178.0 968 0 6 -- Chart
1955 9 6 18 54.6 179.5 968 0 6 -- Chart
1955 9 7 00 55.5 180.9 970 0 6 -- Chart
1955 9 7 06 56.7 182.0 975 0 6 -- Chart
1955 9 7 12 57.5 182.4 980 0 6 -- Chart
1955 9 7 18 58.2 182.5 985 0 6 -- Chart
1955 9 8 00 58.8 182.0 990 0 6 -- Chart
1955 9 8 06 59.5 181.3 996 0 6 -- Chart
1955 9 8 12 60.0 180.1 996 0 6 -- Chart
1955 9 8 18 60.0 178.2 998 0 6 -- Chart
Japan Meteorological Agency Best Track Data | Correction Date : 1991-07-16
< Typhoon 195519 1955 Season Typhoon 195521 >

Help